sensor_id;sensor_type;location;lat;lon;timestamp;temperature;humidity
1383;DHT22;685;47.196;11.880;2022-12-07T00:00:34;0.60;99.90
1383;DHT22;685;47.196;11.880;2022-12-07T00:03:02;0.70;99.90
1383;DHT22;685;47.196;11.880;2022-12-07T00:05:29;0.70;99.90
1383;DHT22;685;47.196;11.880;2022-12-07T00:07:56;0.80;99.90
1383;DHT22;685;47.196;11.880;2022-12-07T00:10:23;0.90;99.90
1383;DHT22;685;47.196;11.880;2022-12-07T00:12:50;1.00;99.90
1383;DHT22;685;47.196;11.880;2022-12-07T00:15:17;1.00;99.90
1383;DHT22;685;47.196;11.880;2022-12-07T00:17:43;1.00;99.90
1383;DHT22;685;47.196;11.880;2022-12-07T00:20:12;0.80;99.90
1383;DHT22;685;47.196;11.880;2022-12-07T00:22:38;0.90;99.90
1383;DHT22;685;47.196;11.880;2022-12-07T00:25:06;0.70;99.90
1383;DHT22;685;47.196;11.880;2022-12-07T00:27:32;0.70;99.90
1383;DHT22;685;47.196;11.880;2022-12-07T00:29:59;1.00;99.90
1383;DHT22;685;47.196;11.880;2022-12-07T00:32:26;1.10;99.90
1383;DHT22;685;47.196;11.880;2022-12-07T00:34:53;1.10;99.90
1383;DHT22;685;47.196;11.880;2022-12-07T00:37:21;1.00;99.90
1383;DHT22;685;47.196;11.880;2022-12-07T00:39:48;1.00;99.90
1383;DHT22;685;47.196;11.880;2022-12-07T00:42:15;1.00;99.90
1383;DHT22;685;47.196;11.880;2022-12-07T00:44:42;1.20;99.90
1383;DHT22;685;47.196;11.880;2022-12-07T00:47:08;1.30;99.90
1383;DHT22;685;47.196;11.880;2022-12-07T00:49:35;1.30;99.90
1383;DHT22;685;47.196;11.880;2022-12-07T00:52:03;1.20;99.90
1383;DHT22;685;47.196;11.880;2022-12-07T00:54:31;1.10;99.90
1383;DHT22;685;47.196;11.880;2022-12-07T00:56:58;1.10;99.90
1383;DHT22;685;47.196;11.880;2022-12-07T00:59:25;1.10;99.90
1383;DHT22;685;47.196;11.880;2022-12-07T01:01:52;1.20;99.90
1383;DHT22;685;47.196;11.880;2022-12-07T01:04:18;1.20;99.90
1383;DHT22;685;47.196;11.880;2022-12-07T01:06:45;1.10;99.90
1383;DHT22;685;47.196;11.880;2022-12-07T01:09:12;1.10;99.90
1383;DHT22;685;47.196;11.880;2022-12-07T01:11:40;1.00;99.90
1383;DHT22;685;47.196;11.880;2022-12-07T01:14:09;1.20;99.90
1383;DHT22;685;47.196;11.880;2022-12-07T01:16:35;1.30;99.90
1383;DHT22;685;47.196;11.880;2022-12-07T01:19:02;1.20;99.90
1383;DHT22;685;47.196;11.880;2022-12-07T01:21:32;1.10;99.90
1383;DHT22;685;47.196;11.880;2022-12-07T01:24:00;1.10;99.90
1383;DHT22;685;47.196;11.880;2022-12-07T01:26:27;0.70;99.90
1383;DHT22;685;47.196;11.880;2022-12-07T01:28:56;0.50;99.90
1383;DHT22;685;47.196;11.880;2022-12-07T01:31:26;0.70;99.90
1383;DHT22;685;47.196;11.880;2022-12-07T01:33:54;0.70;99.90
1383;DHT22;685;47.196;11.880;2022-12-07T01:36:23;0.50;99.90
1383;DHT22;685;47.196;11.880;2022-12-07T01:38:51;0.30;99.90
1383;DHT22;685;47.196;11.880;2022-12-07T01:41:19;0.40;99.90
1383;DHT22;685;47.196;11.880;2022-12-07T01:44:22;0.30;99.90
1383;DHT22;685;47.196;11.880;2022-12-07T01:46:50;0.20;99.90
1383;DHT22;685;47.196;11.880;2022-12-07T01:49:28;0.30;99.90
1383;DHT22;685;47.196;11.880;2022-12-07T01:52:02;0.30;99.90
1383;DHT22;685;47.196;11.880;2022-12-07T01:54:30;0.30;99.90
1383;DHT22;685;47.196;11.880;2022-12-07T01:56:58;0.40;99.90
1383;DHT22;685;47.196;11.880;2022-12-07T01:59:26;0.80;99.90
1383;DHT22;685;47.196;11.880;2022-12-07T02:01:54;1.00;99.90
1383;DHT22;685;47.196;11.880;2022-12-07T02:04:22;0.90;99.90
1383;DHT22;685;47.196;11.880;2022-12-07T02:06:50;0.90;99.90
1383;DHT22;685;47.196;11.880;2022-12-07T02:09:18;1.00;99.90
1383;DHT22;685;47.196;11.880;2022-12-07T02:11:44;0.90;99.90
1383;DHT22;685;47.196;11.880;2022-12-07T02:14:11;1.10;99.90
1383;DHT22;685;47.196;11.880;2022-12-07T02:16:46;1.20;99.90
1383;DHT22;685;47.196;11.880;2022-12-07T02:19:38;1.20;99.90
1383;DHT22;685;47.196;11.880;2022-12-07T02:22:16;1.10;99.90
1383;DHT22;685;47.196;11.880;2022-12-07T02:24:52;1.20;99.90
1383;DHT22;685;47.196;11.880;2022-12-07T02:27:45;1.30;99.90
1383;DHT22;685;47.196;11.880;2022-12-07T02:30:15;1.10;99.90
1383;DHT22;685;47.196;11.880;2022-12-07T02:32:48;1.00;99.90
1383;DHT22;685;47.196;11.880;2022-12-07T02:35:19;0.90;99.90
1383;DHT22;685;47.196;11.880;2022-12-07T02:37:55;1.10;99.90
1383;DHT22;685;47.196;11.880;2022-12-07T02:40:28;1.10;99.90
1383;DHT22;685;47.196;11.880;2022-12-07T02:43:01;1.10;99.90
1383;DHT22;685;47.196;11.880;2022-12-07T02:45:33;1.00;99.90
1383;DHT22;685;47.196;11.880;2022-12-07T02:48:02;1.10;99.90
1383;DHT22;685;47.196;11.880;2022-12-07T02:50:30;0.70;99.90
1383;DHT22;685;47.196;11.880;2022-12-07T02:52:57;0.50;99.90
1383;DHT22;685;47.196;11.880;2022-12-07T02:55:28;0.20;99.90
1383;DHT22;685;47.196;11.880;2022-12-07T02:58:22;0.30;99.90
1383;DHT22;685;47.196;11.880;2022-12-07T03:01:01;0.50;99.90
1383;DHT22;685;47.196;11.880;2022-12-07T03:03:31;0.70;99.90
1383;DHT22;685;47.196;11.880;2022-12-07T03:06:09;0.80;99.90
1383;DHT22;685;47.196;11.880;2022-12-07T03:08:44;0.90;99.90
1383;DHT22;685;47.196;11.880;2022-12-07T03:11:16;1.00;99.90
1383;DHT22;685;47.196;11.880;2022-12-07T03:13:49;0.80;99.90
1383;DHT22;685;47.196;11.880;2022-12-07T03:16:23;1.00;99.90
1383;DHT22;685;47.196;11.880;2022-12-07T03:18:55;1.00;99.90
1383;DHT22;685;47.196;11.880;2022-12-07T03:21:25;0.80;99.90
1383;DHT22;685;47.196;11.880;2022-12-07T03:23:56;0.60;99.90
1383;DHT22;685;47.196;11.880;2022-12-07T03:26:30;0.50;99.90
1383;DHT22;685;47.196;11.880;2022-12-07T03:29:01;0.50;99.90
1383;DHT22;685;47.196;11.880;2022-12-07T03:31:32;0.30;99.90
1383;DHT22;685;47.196;11.880;2022-12-07T03:34:02;0.30;99.90
1383;DHT22;685;47.196;11.880;2022-12-07T03:36:34;0.30;99.90
1383;DHT22;685;47.196;11.880;2022-12-07T03:39:07;0.20;99.90
1383;DHT22;685;47.196;11.880;2022-12-07T03:41:39;0.20;99.90
1383;DHT22;685;47.196;11.880;2022-12-07T03:44:07;0.10;99.90
1383;DHT22;685;47.196;11.880;2022-12-07T03:46:42;0.20;99.90
1383;DHT22;685;47.196;11.880;2022-12-07T03:49:16;0.10;99.90
1383;DHT22;685;47.196;11.880;2022-12-07T03:51:50;0.20;99.90
1383;DHT22;685;47.196;11.880;2022-12-07T03:54:21;0.20;99.90
1383;DHT22;685;47.196;11.880;2022-12-07T03:56:50;0.10;99.90
1383;DHT22;685;47.196;11.880;2022-12-07T03:59:19;0.10;99.90
1383;DHT22;685;47.196;11.880;2022-12-07T04:01:54;0.00;99.90
1383;DHT22;685;47.196;11.880;2022-12-07T04:04:22;0.10;99.90
1383;DHT22;685;47.196;11.880;2022-12-07T04:06:49;0.30;99.90
1383;DHT22;685;47.196;11.880;2022-12-07T04:09:17;0.30;99.90
1383;DHT22;685;47.196;11.880;2022-12-07T04:11:44;0.40;99.90
1383;DHT22;685;47.196;11.880;2022-12-07T04:14:11;0.40;99.90
1383;DHT22;685;47.196;11.880;2022-12-07T04:16:47;0.50;99.90
1383;DHT22;685;47.196;11.880;2022-12-07T04:19:17;0.40;99.90
1383;DHT22;685;47.196;11.880;2022-12-07T04:21:44;0.50;99.90
1383;DHT22;685;47.196;11.880;2022-12-07T04:24:12;0.60;99.90
1383;DHT22;685;47.196;11.880;2022-12-07T04:26:40;0.80;99.90
1383;DHT22;685;47.196;11.880;2022-12-07T04:29:07;0.80;99.90
1383;DHT22;685;47.196;11.880;2022-12-07T04:31:34;0.60;99.90
1383;DHT22;685;47.196;11.880;2022-12-07T04:34:00;0.50;99.90
1383;DHT22;685;47.196;11.880;2022-12-07T04:36:29;0.50;99.90
1383;DHT22;685;47.196;11.880;2022-12-07T04:38:56;0.50;99.90
1383;DHT22;685;47.196;11.880;2022-12-07T04:41:23;0.50;99.90
1383;DHT22;685;47.196;11.880;2022-12-07T04:43:54;0.30;99.90
1383;DHT22;685;47.196;11.880;2022-12-07T04:46:22;0.50;99.90
1383;DHT22;685;47.196;11.880;2022-12-07T04:48:49;0.50;99.90
1383;DHT22;685;47.196;11.880;2022-12-07T04:51:19;0.70;99.90
1383;DHT22;685;47.196;11.880;2022-12-07T04:53:48;0.60;99.90
1383;DHT22;685;47.196;11.880;2022-12-07T04:56:16;0.70;99.90
1383;DHT22;685;47.196;11.880;2022-12-07T04:58:44;0.70;99.90
1383;DHT22;685;47.196;11.880;2022-12-07T05:01:12;0.40;99.90
1383;DHT22;685;47.196;11.880;2022-12-07T05:03:39;0.60;99.90
1383;DHT22;685;47.196;11.880;2022-12-07T05:06:07;0.80;99.90
1383;DHT22;685;47.196;11.880;2022-12-07T05:08:34;0.80;99.90
1383;DHT22;685;47.196;11.880;2022-12-07T05:11:04;0.50;99.90
1383;DHT22;685;47.196;11.880;2022-12-07T05:13:32;0.70;99.90
1383;DHT22;685;47.196;11.880;2022-12-07T05:15:59;0.90;99.90
1383;DHT22;685;47.196;11.880;2022-12-07T05:18:26;0.90;99.90
1383;DHT22;685;47.196;11.880;2022-12-07T05:20:53;0.90;99.90
1383;DHT22;685;47.196;11.880;2022-12-07T05:23:20;0.80;99.90
1383;DHT22;685;47.196;11.880;2022-12-07T05:25:46;0.70;99.90
1383;DHT22;685;47.196;11.880;2022-12-07T05:28:15;0.90;99.90
1383;DHT22;685;47.196;11.880;2022-12-07T05:30:41;0.70;99.90
1383;DHT22;685;47.196;11.880;2022-12-07T05:33:08;0.80;99.90
1383;DHT22;685;47.196;11.880;2022-12-07T05:35:35;0.90;99.90
1383;DHT22;685;47.196;11.880;2022-12-07T05:38:03;0.90;99.90
1383;DHT22;685;47.196;11.880;2022-12-07T05:40:30;0.90;99.90
1383;DHT22;685;47.196;11.880;2022-12-07T05:42:57;0.70;99.90
1383;DHT22;685;47.196;11.880;2022-12-07T05:45:24;0.60;99.90
1383;DHT22;685;47.196;11.880;2022-12-07T05:47:51;0.60;99.90
1383;DHT22;685;47.196;11.880;2022-12-07T05:50:18;0.50;99.90
1383;DHT22;685;47.196;11.880;2022-12-07T05:52:44;0.30;99.90
1383;DHT22;685;47.196;11.880;2022-12-07T05:55:11;0.60;99.90
1383;DHT22;685;47.196;11.880;2022-12-07T05:57:38;0.60;99.90
1383;DHT22;685;47.196;11.880;2022-12-07T06:00:06;0.60;99.90
1383;DHT22;685;47.196;11.880;2022-12-07T06:02:33;0.70;99.90
1383;DHT22;685;47.196;11.880;2022-12-07T06:05:00;0.70;99.90
1383;DHT22;685;47.196;11.880;2022-12-07T06:07:27;0.70;99.90
1383;DHT22;685;47.196;11.880;2022-12-07T06:09:54;0.50;99.90
1383;DHT22;685;47.196;11.880;2022-12-07T06:12:21;0.50;99.90
1383;DHT22;685;47.196;11.880;2022-12-07T06:15:04;0.60;99.90
1383;DHT22;685;47.196;11.880;2022-12-07T06:17:33;0.70;99.90
1383;DHT22;685;47.196;11.880;2022-12-07T06:20:00;0.70;99.90
1383;DHT22;685;47.196;11.880;2022-12-07T06:22:27;0.80;99.90
1383;DHT22;685;47.196;11.880;2022-12-07T06:24:54;0.90;99.90
1383;DHT22;685;47.196;11.880;2022-12-07T06:27:20;1.00;99.90
1383;DHT22;685;47.196;11.880;2022-12-07T06:29:47;1.00;99.90
1383;DHT22;685;47.196;11.880;2022-12-07T06:32:14;1.10;99.90
1383;DHT22;685;47.196;11.880;2022-12-07T06:34:42;1.10;99.90
1383;DHT22;685;47.196;11.880;2022-12-07T06:37:09;1.10;99.90
1383;DHT22;685;47.196;11.880;2022-12-07T06:39:36;0.90;99.90
1383;DHT22;685;47.196;11.880;2022-12-07T06:42:04;1.00;99.90
1383;DHT22;685;47.196;11.880;2022-12-07T06:44:30;0.80;99.90
1383;DHT22;685;47.196;11.880;2022-12-07T06:46:58;0.90;99.90
1383;DHT22;685;47.196;11.880;2022-12-07T06:49:25;1.00;99.90
1383;DHT22;685;47.196;11.880;2022-12-07T06:51:53;0.90;99.90
1383;DHT22;685;47.196;11.880;2022-12-07T06:54:20;1.00;99.90
1383;DHT22;685;47.196;11.880;2022-12-07T06:56:47;1.10;99.90
1383;DHT22;685;47.196;11.880;2022-12-07T06:59:13;1.00;99.90
1383;DHT22;685;47.196;11.880;2022-12-07T07:01:40;1.10;99.90
1383;DHT22;685;47.196;11.880;2022-12-07T07:04:07;1.10;99.90
1383;DHT22;685;47.196;11.880;2022-12-07T07:06:34;1.20;99.90
1383;DHT22;685;47.196;11.880;2022-12-07T07:09:03;1.20;99.90
1383;DHT22;685;47.196;11.880;2022-12-07T07:11:29;1.00;99.90
1383;DHT22;685;47.196;11.880;2022-12-07T07:13:56;0.90;99.90
1383;DHT22;685;47.196;11.880;2022-12-07T07:16:27;1.00;99.90
1383;DHT22;685;47.196;11.880;2022-12-07T07:18:54;1.10;99.90
1383;DHT22;685;47.196;11.880;2022-12-07T07:21:21;1.20;99.90
1383;DHT22;685;47.196;11.880;2022-12-07T07:23:49;1.30;99.90
1383;DHT22;685;47.196;11.880;2022-12-07T07:26:17;1.30;99.90
1383;DHT22;685;47.196;11.880;2022-12-07T07:28:44;1.10;99.90
1383;DHT22;685;47.196;11.880;2022-12-07T07:31:11;1.10;99.90
1383;DHT22;685;47.196;11.880;2022-12-07T07:33:37;1.10;99.90
1383;DHT22;685;47.196;11.880;2022-12-07T07:36:05;1.30;99.90
1383;DHT22;685;47.196;11.880;2022-12-07T07:38:32;1.10;99.90
1383;DHT22;685;47.196;11.880;2022-12-07T07:40:59;1.20;99.90
1383;DHT22;685;47.196;11.880;2022-12-07T07:43:27;1.10;99.90
1383;DHT22;685;47.196;11.880;2022-12-07T07:45:54;1.10;99.90
1383;DHT22;685;47.196;11.880;2022-12-07T07:48:21;1.20;99.90
1383;DHT22;685;47.196;11.880;2022-12-07T07:50:50;1.20;99.90
1383;DHT22;685;47.196;11.880;2022-12-07T07:53:17;1.20;99.90
1383;DHT22;685;47.196;11.880;2022-12-07T07:55:50;1.20;99.90
1383;DHT22;685;47.196;11.880;2022-12-07T07:58:17;1.10;99.90
1383;DHT22;685;47.196;11.880;2022-12-07T08:00:46;1.30;99.90
1383;DHT22;685;47.196;11.880;2022-12-07T08:03:13;1.30;99.90
1383;DHT22;685;47.196;11.880;2022-12-07T08:05:40;1.20;99.90
1383;DHT22;685;47.196;11.880;2022-12-07T08:08:06;1.30;99.90
1383;DHT22;685;47.196;11.880;2022-12-07T08:10:33;1.30;99.90
1383;DHT22;685;47.196;11.880;2022-12-07T08:13:01;1.60;99.90
1383;DHT22;685;47.196;11.880;2022-12-07T08:15:41;1.50;99.90
1383;DHT22;685;47.196;11.880;2022-12-07T08:18:09;1.50;99.90
1383;DHT22;685;47.196;11.880;2022-12-07T08:20:46;1.50;99.90
1383;DHT22;685;47.196;11.880;2022-12-07T08:23:13;1.20;99.90
1383;DHT22;685;47.196;11.880;2022-12-07T08:25:40;1.30;99.90
1383;DHT22;685;47.196;11.880;2022-12-07T08:28:07;1.60;99.90
1383;DHT22;685;47.196;11.880;2022-12-07T08:30:34;1.70;99.90
1383;DHT22;685;47.196;11.880;2022-12-07T08:33:01;1.40;99.90
1383;DHT22;685;47.196;11.880;2022-12-07T08:35:28;1.00;99.90
1383;DHT22;685;47.196;11.880;2022-12-07T08:37:56;0.90;99.90
1383;DHT22;685;47.196;11.880;2022-12-07T08:40:23;0.90;99.90
1383;DHT22;685;47.196;11.880;2022-12-07T08:42:50;1.10;99.90
1383;DHT22;685;47.196;11.880;2022-12-07T08:45:18;1.40;99.90
1383;DHT22;685;47.196;11.880;2022-12-07T08:47:48;1.50;99.90
1383;DHT22;685;47.196;11.880;2022-12-07T08:50:17;1.50;99.90
1383;DHT22;685;47.196;11.880;2022-12-07T08:52:44;1.50;99.90
1383;DHT22;685;47.196;11.880;2022-12-07T08:55:12;1.70;99.90
1383;DHT22;685;47.196;11.880;2022-12-07T08:57:39;1.80;99.90
1383;DHT22;685;47.196;11.880;2022-12-07T09:00:09;1.70;99.90
1383;DHT22;685;47.196;11.880;2022-12-07T09:02:36;1.80;99.90
1383;DHT22;685;47.196;11.880;2022-12-07T09:05:03;1.40;99.90
1383;DHT22;685;47.196;11.880;2022-12-07T09:07:31;1.30;99.90
1383;DHT22;685;47.196;11.880;2022-12-07T09:09:58;1.40;99.90
1383;DHT22;685;47.196;11.880;2022-12-07T09:12:26;1.50;99.90
1383;DHT22;685;47.196;11.880;2022-12-07T09:14:53;1.60;99.90
1383;DHT22;685;47.196;11.880;2022-12-07T09:17:20;1.60;99.90
1383;DHT22;685;47.196;11.880;2022-12-07T09:19:47;1.60;99.90
1383;DHT22;685;47.196;11.880;2022-12-07T09:22:14;1.60;99.90
1383;DHT22;685;47.196;11.880;2022-12-07T09:24:40;1.40;99.90
1383;DHT22;685;47.196;11.880;2022-12-07T09:27:07;1.30;99.90
1383;DHT22;685;47.196;11.880;2022-12-07T09:29:35;1.40;99.90
1383;DHT22;685;47.196;11.880;2022-12-07T09:32:03;1.60;99.90
1383;DHT22;685;47.196;11.880;2022-12-07T09:34:31;1.70;99.90
1383;DHT22;685;47.196;11.880;2022-12-07T09:36:58;1.80;99.90
1383;DHT22;685;47.196;11.880;2022-12-07T09:39:25;1.90;99.90
1383;DHT22;685;47.196;11.880;2022-12-07T09:41:53;2.00;99.90
1383;DHT22;685;47.196;11.880;2022-12-07T09:44:23;1.70;99.90
1383;DHT22;685;47.196;11.880;2022-12-07T09:46:52;1.50;99.90
1383;DHT22;685;47.196;11.880;2022-12-07T09:49:20;1.40;99.90
1383;DHT22;685;47.196;11.880;2022-12-07T09:51:47;1.50;99.90
1383;DHT22;685;47.196;11.880;2022-12-07T09:54:24;1.40;99.90
1383;DHT22;685;47.196;11.880;2022-12-07T09:56:50;1.50;99.90
1383;DHT22;685;47.196;11.880;2022-12-07T09:59:18;1.80;99.90
1383;DHT22;685;47.196;11.880;2022-12-07T10:01:47;1.90;99.90
1383;DHT22;685;47.196;11.880;2022-12-07T10:04:18;1.90;99.90
1383;DHT22;685;47.196;11.880;2022-12-07T10:06:46;1.80;99.90
1383;DHT22;685;47.196;11.880;2022-12-07T10:09:15;1.80;99.90
1383;DHT22;685;47.196;11.880;2022-12-07T10:12:02;2.00;99.90
1383;DHT22;685;47.196;11.880;2022-12-07T10:14:31;2.40;99.90
1383;DHT22;685;47.196;11.880;2022-12-07T10:16:59;2.50;99.90
1383;DHT22;685;47.196;11.880;2022-12-07T10:19:28;2.60;99.90
1383;DHT22;685;47.196;11.880;2022-12-07T10:22:05;2.80;99.90
1383;DHT22;685;47.196;11.880;2022-12-07T10:24:35;2.40;99.90
1383;DHT22;685;47.196;11.880;2022-12-07T10:27:05;2.60;99.90
1383;DHT22;685;47.196;11.880;2022-12-07T10:29:33;2.60;99.90
1383;DHT22;685;47.196;11.880;2022-12-07T10:32:03;2.70;99.90
1383;DHT22;685;47.196;11.880;2022-12-07T10:34:33;2.60;99.90
1383;DHT22;685;47.196;11.880;2022-12-07T10:37:14;2.40;99.90
1383;DHT22;685;47.196;11.880;2022-12-07T10:39:43;2.70;99.90
1383;DHT22;685;47.196;11.880;2022-12-07T10:42:17;2.60;99.90
1383;DHT22;685;47.196;11.880;2022-12-07T10:44:44;2.70;99.90
1383;DHT22;685;47.196;11.880;2022-12-07T10:47:19;2.80;99.90
1383;DHT22;685;47.196;11.880;2022-12-07T10:53:15;2.90;99.90
1383;DHT22;685;47.196;11.880;2022-12-07T10:56:07;2.90;99.90
1383;DHT22;685;47.196;11.880;2022-12-07T10:58:50;2.90;99.90
1383;DHT22;685;47.196;11.880;2022-12-07T11:01:24;3.00;99.90
1383;DHT22;685;47.196;11.880;2022-12-07T11:04:04;2.80;99.90
1383;DHT22;685;47.196;11.880;2022-12-07T11:06:39;3.10;99.90
1383;DHT22;685;47.196;11.880;2022-12-07T11:09:44;3.30;99.90
1383;DHT22;685;47.196;11.880;2022-12-07T11:12:19;3.30;99.90
1383;DHT22;685;47.196;11.880;2022-12-07T11:14:54;3.40;99.90
1383;DHT22;685;47.196;11.880;2022-12-07T11:17:28;3.30;99.90
1383;DHT22;685;47.196;11.880;2022-12-07T11:20:04;3.40;99.90
1383;DHT22;685;47.196;11.880;2022-12-07T11:22:38;3.40;99.90
1383;DHT22;685;47.196;11.880;2022-12-07T11:25:20;3.30;99.90
1383;DHT22;685;47.196;11.880;2022-12-07T11:28:06;3.30;99.90
1383;DHT22;685;47.196;11.880;2022-12-07T11:30:42;3.30;99.90
1383;DHT22;685;47.196;11.880;2022-12-07T11:33:17;3.30;99.90
1383;DHT22;685;47.196;11.880;2022-12-07T11:35:54;3.30;99.90
1383;DHT22;685;47.196;11.880;2022-12-07T11:38:35;3.20;99.90
1383;DHT22;685;47.196;11.880;2022-12-07T11:41:06;3.20;99.90
1383;DHT22;685;47.196;11.880;2022-12-07T11:43:52;3.20;99.90
1383;DHT22;685;47.196;11.880;2022-12-07T11:46:24;3.10;99.90
1383;DHT22;685;47.196;11.880;2022-12-07T11:48:58;3.10;99.90
1383;DHT22;685;47.196;11.880;2022-12-07T11:51:25;3.20;99.90
1383;DHT22;685;47.196;11.880;2022-12-07T11:53:55;3.20;99.90
1383;DHT22;685;47.196;11.880;2022-12-07T11:56:26;3.20;99.90
1383;DHT22;685;47.196;11.880;2022-12-07T11:58:56;3.00;99.90
1383;DHT22;685;47.196;11.880;2022-12-07T12:01:35;3.10;99.90
1383;DHT22;685;47.196;11.880;2022-12-07T12:04:16;3.10;99.90
1383;DHT22;685;47.196;11.880;2022-12-07T12:06:45;3.30;99.90
1383;DHT22;685;47.196;11.880;2022-12-07T12:09:14;3.20;99.90
1383;DHT22;685;47.196;11.880;2022-12-07T12:12:08;3.20;99.90
1383;DHT22;685;47.196;11.880;2022-12-07T12:14:48;3.20;99.90
1383;DHT22;685;47.196;11.880;2022-12-07T12:20:26;3.30;99.90
1383;DHT22;685;47.196;11.880;2022-12-07T12:22:59;3.30;99.90
1383;DHT22;685;47.196;11.880;2022-12-07T12:25:29;3.30;99.90
1383;DHT22;685;47.196;11.880;2022-12-07T12:27:59;3.10;99.90
1383;DHT22;685;47.196;11.880;2022-12-07T12:30:32;3.00;99.90
1383;DHT22;685;47.196;11.880;2022-12-07T12:33:13;3.20;99.90
1383;DHT22;685;47.196;11.880;2022-12-07T12:35:40;3.10;99.90
1383;DHT22;685;47.196;11.880;2022-12-07T12:38:29;3.20;99.90
1383;DHT22;685;47.196;11.880;2022-12-07T12:40:59;3.40;99.90
1383;DHT22;685;47.196;11.880;2022-12-07T12:43:58;3.40;99.90
1383;DHT22;685;47.196;11.880;2022-12-07T12:46:48;3.40;99.90
1383;DHT22;685;47.196;11.880;2022-12-07T12:49:36;3.30;99.90
1383;DHT22;685;47.196;11.880;2022-12-07T12:55:18;3.40;99.90
1383;DHT22;685;47.196;11.880;2022-12-07T12:57:48;3.40;99.90
1383;DHT22;685;47.196;11.880;2022-12-07T13:00:36;3.40;99.90
1383;DHT22;685;47.196;11.880;2022-12-07T13:03:03;3.30;99.90
1383;DHT22;685;47.196;11.880;2022-12-07T13:05:31;3.40;99.90
1383;DHT22;685;47.196;11.880;2022-12-07T13:08:00;3.40;99.90
1383;DHT22;685;47.196;11.880;2022-12-07T13:10:40;3.30;99.90
1383;DHT22;685;47.196;11.880;2022-12-07T13:13:31;3.30;99.90
1383;DHT22;685;47.196;11.880;2022-12-07T13:18:59;3.40;99.90
1383;DHT22;685;47.196;11.880;2022-12-07T13:21:43;3.40;99.90
1383;DHT22;685;47.196;11.880;2022-12-07T13:24:12;3.30;99.90
1383;DHT22;685;47.196;11.880;2022-12-07T13:26:42;3.00;99.90
1383;DHT22;685;47.196;11.880;2022-12-07T13:29:12;2.90;99.90
1383;DHT22;685;47.196;11.880;2022-12-07T13:31:40;3.00;99.90
1383;DHT22;685;47.196;11.880;2022-12-07T13:34:31;3.10;99.90
1383;DHT22;685;47.196;11.880;2022-12-07T13:36:59;3.20;99.90
1383;DHT22;685;47.196;11.880;2022-12-07T13:39:27;3.30;99.90
1383;DHT22;685;47.196;11.880;2022-12-07T13:41:56;3.10;99.90
1383;DHT22;685;47.196;11.880;2022-12-07T13:44:25;3.00;99.90
1383;DHT22;685;47.196;11.880;2022-12-07T13:47:01;3.20;99.90
1383;DHT22;685;47.196;11.880;2022-12-07T13:49:37;3.20;99.90
1383;DHT22;685;47.196;11.880;2022-12-07T13:52:14;3.20;99.90
1383;DHT22;685;47.196;11.880;2022-12-07T13:54:46;3.00;99.90
1383;DHT22;685;47.196;11.880;2022-12-07T13:57:14;2.90;99.90
1383;DHT22;685;47.196;11.880;2022-12-07T13:59:42;2.90;99.90
1383;DHT22;685;47.196;11.880;2022-12-07T14:02:19;2.90;99.90
1383;DHT22;685;47.196;11.880;2022-12-07T14:04:48;3.00;99.90
1383;DHT22;685;47.196;11.880;2022-12-07T14:07:25;3.00;99.90
1383;DHT22;685;47.196;11.880;2022-12-07T14:09:57;2.80;99.90
1383;DHT22;685;47.196;11.880;2022-12-07T14:12:25;2.90;99.90
1383;DHT22;685;47.196;11.880;2022-12-07T14:14:52;3.10;99.90
1383;DHT22;685;47.196;11.880;2022-12-07T14:17:21;3.20;99.90
1383;DHT22;685;47.196;11.880;2022-12-07T14:19:52;3.30;99.90
1383;DHT22;685;47.196;11.880;2022-12-07T14:22:24;3.40;99.90
1383;DHT22;685;47.196;11.880;2022-12-07T14:24:58;3.40;99.90
1383;DHT22;685;47.196;11.880;2022-12-07T14:27:31;3.50;99.90
1383;DHT22;685;47.196;11.880;2022-12-07T14:30:00;3.30;99.90
1383;DHT22;685;47.196;11.880;2022-12-07T14:32:29;3.10;99.90
1383;DHT22;685;47.196;11.880;2022-12-07T14:34:59;2.90;99.90
1383;DHT22;685;47.196;11.880;2022-12-07T14:37:28;2.80;99.90
1383;DHT22;685;47.196;11.880;2022-12-07T14:39:55;2.90;99.90
1383;DHT22;685;47.196;11.880;2022-12-07T14:42:26;2.80;99.90
1383;DHT22;685;47.196;11.880;2022-12-07T14:44:54;2.80;99.90
1383;DHT22;685;47.196;11.880;2022-12-07T14:47:21;2.70;99.90
1383;DHT22;685;47.196;11.880;2022-12-07T14:49:47;2.70;99.90
1383;DHT22;685;47.196;11.880;2022-12-07T14:52:18;2.70;99.90
1383;DHT22;685;47.196;11.880;2022-12-07T14:54:46;2.70;99.90
1383;DHT22;685;47.196;11.880;2022-12-07T14:57:12;2.90;99.90
1383;DHT22;685;47.196;11.880;2022-12-07T14:59:39;3.00;99.90
1383;DHT22;685;47.196;11.880;2022-12-07T15:02:09;3.00;99.90
1383;DHT22;685;47.196;11.880;2022-12-07T15:04:36;3.00;99.90
1383;DHT22;685;47.196;11.880;2022-12-07T15:07:05;3.10;99.90
1383;DHT22;685;47.196;11.880;2022-12-07T15:09:33;3.10;99.90
1383;DHT22;685;47.196;11.880;2022-12-07T15:12:00;3.10;99.90
1383;DHT22;685;47.196;11.880;2022-12-07T15:14:28;3.00;99.90
1383;DHT22;685;47.196;11.880;2022-12-07T15:16:54;2.90;99.90
1383;DHT22;685;47.196;11.880;2022-12-07T15:19:23;2.90;99.90
1383;DHT22;685;47.196;11.880;2022-12-07T15:21:51;3.00;99.90
1383;DHT22;685;47.196;11.880;2022-12-07T15:24:19;3.00;99.90
1383;DHT22;685;47.196;11.880;2022-12-07T15:26:48;2.90;99.90
1383;DHT22;685;47.196;11.880;2022-12-07T15:29:15;2.90;99.90
1383;DHT22;685;47.196;11.880;2022-12-07T15:31:42;2.80;99.90
1383;DHT22;685;47.196;11.880;2022-12-07T15:34:09;3.00;99.90
1383;DHT22;685;47.196;11.880;2022-12-07T15:36:36;3.00;99.90
1383;DHT22;685;47.196;11.880;2022-12-07T15:39:03;3.00;99.90
1383;DHT22;685;47.196;11.880;2022-12-07T15:41:30;3.00;99.90
1383;DHT22;685;47.196;11.880;2022-12-07T15:43:58;3.00;99.90
1383;DHT22;685;47.196;11.880;2022-12-07T15:46:43;3.10;99.90
1383;DHT22;685;47.196;11.880;2022-12-07T15:49:14;2.60;99.90
1383;DHT22;685;47.196;11.880;2022-12-07T15:51:42;2.90;99.90
1383;DHT22;685;47.196;11.880;2022-12-07T15:54:13;3.00;99.90
1383;DHT22;685;47.196;11.880;2022-12-07T15:56:42;3.00;99.90
1383;DHT22;685;47.196;11.880;2022-12-07T15:59:10;2.90;99.90
1383;DHT22;685;47.196;11.880;2022-12-07T16:01:37;2.70;99.90
1383;DHT22;685;47.196;11.880;2022-12-07T16:04:04;2.70;99.90
1383;DHT22;685;47.196;11.880;2022-12-07T16:06:30;2.80;99.90
1383;DHT22;685;47.196;11.880;2022-12-07T16:08:57;2.90;99.90
1383;DHT22;685;47.196;11.880;2022-12-07T16:11:25;3.00;99.90
1383;DHT22;685;47.196;11.880;2022-12-07T16:13:52;3.00;99.90
1383;DHT22;685;47.196;11.880;2022-12-07T16:16:21;2.90;99.90
1383;DHT22;685;47.196;11.880;2022-12-07T16:18:49;3.00;99.90
1383;DHT22;685;47.196;11.880;2022-12-07T16:21:16;3.00;99.90
1383;DHT22;685;47.196;11.880;2022-12-07T16:23:44;3.00;99.90
1383;DHT22;685;47.196;11.880;2022-12-07T16:26:12;3.00;99.90
1383;DHT22;685;47.196;11.880;2022-12-07T16:28:40;2.90;99.90
1383;DHT22;685;47.196;11.880;2022-12-07T16:31:09;3.00;99.90
1383;DHT22;685;47.196;11.880;2022-12-07T16:33:39;3.00;99.90
1383;DHT22;685;47.196;11.880;2022-12-07T16:36:07;3.10;99.90
1383;DHT22;685;47.196;11.880;2022-12-07T16:38:35;3.00;99.90
1383;DHT22;685;47.196;11.880;2022-12-07T16:41:03;3.00;99.90
1383;DHT22;685;47.196;11.880;2022-12-07T16:43:30;3.00;99.90
1383;DHT22;685;47.196;11.880;2022-12-07T16:45:57;2.90;99.90
1383;DHT22;685;47.196;11.880;2022-12-07T16:48:23;2.90;99.90